createdAt,value
2022-10-18T00:01:13.427Z,15.99
2022-10-18T00:06:11.930Z,15.93
2022-10-18T00:08:40.833Z,15.87
2022-10-18T00:11:09.213Z,15.87
2022-10-18T00:13:37.490Z,15.89
2022-10-18T00:16:07.250Z,15.89
2022-10-18T00:18:35.243Z,15.90
2022-10-18T00:21:07.779Z,15.93
2022-10-18T00:23:36.937Z,15.93
2022-10-18T00:26:06.866Z,15.93
2022-10-18T00:28:36.020Z,15.93
2022-10-18T00:31:18.499Z,15.95
2022-10-18T00:33:47.813Z,15.96
2022-10-18T00:36:17.338Z,15.94
2022-10-18T00:38:46.092Z,15.93
2022-10-18T00:41:19.426Z,15.91
2022-10-18T00:43:59.436Z,15.93
2022-10-18T00:46:29.217Z,15.90
2022-10-18T00:48:58.497Z,15.84
2022-10-18T00:51:32.340Z,15.80
2022-10-18T00:54:00.635Z,15.75
2022-10-18T00:56:29.056Z,15.74
2022-10-18T00:58:57.260Z,15.75
2022-10-18T01:01:28.270Z,15.78
2022-10-18T01:03:57.764Z,15.75
2022-10-18T01:06:28.282Z,15.75
2022-10-18T01:09:18.005Z,15.74
2022-10-18T01:11:57.437Z,15.76
2022-10-18T01:14:38.654Z,15.74
2022-10-18T01:17:19.619Z,15.75
2022-10-18T01:20:15.485Z,15.77
2022-10-18T01:22:46.240Z,15.63
2022-10-18T01:25:43.122Z,15.50
2022-10-18T01:28:37.328Z,15.38
2022-10-18T01:31:10.717Z,15.31
2022-10-18T01:33:44.460Z,15.26
2022-10-18T01:36:16.867Z,15.27
2022-10-18T01:38:45.894Z,15.28
2022-10-18T01:41:16.121Z,15.34
2022-10-18T01:43:45.804Z,15.38
2022-10-18T01:46:19.740Z,15.45
2022-10-18T01:48:48.374Z,15.50
2022-10-18T01:51:16.497Z,15.53
2022-10-18T01:53:44.436Z,15.58
2022-10-18T01:56:23.905Z,15.64
2022-10-18T01:59:02.985Z,15.71
2022-10-18T02:01:41.672Z,15.75
2022-10-18T02:04:21.934Z,15.76
2022-10-18T02:06:59.146Z,15.82
2022-10-18T02:09:34.946Z,15.85
2022-10-18T02:12:05.222Z,15.87
2022-10-18T02:14:34.440Z,15.89
2022-10-18T02:17:09.538Z,15.90
2022-10-18T02:19:42.083Z,15.96
2022-10-18T02:22:13.260Z,15.94
2022-10-18T02:24:44.444Z,15.96
2022-10-18T02:27:13.269Z,15.99
2022-10-18T02:29:43.271Z,15.91
2022-10-18T02:32:18.326Z,15.88
2022-10-18T02:34:50.413Z,15.86
2022-10-18T02:37:19.075Z,15.83
2022-10-18T02:39:49.996Z,15.78
2022-10-18T02:42:18.179Z,15.74
2022-10-18T02:44:46.347Z,15.73
2022-10-18T02:47:15.820Z,15.74
2022-10-18T02:49:43.753Z,15.73
2022-10-18T02:52:11.659Z,15.75
2022-10-18T02:54:39.669Z,15.72
2022-10-18T02:57:07.636Z,15.70
2022-10-18T02:59:35.856Z,15.71
2022-10-18T03:02:03.669Z,15.71
2022-10-18T03:04:33.164Z,15.69
2022-10-18T03:07:00.964Z,15.69
2022-10-18T03:09:28.771Z,15.65
2022-10-18T03:11:56.923Z,15.61
2022-10-18T03:14:25.149Z,15.63
2022-10-18T03:16:53.532Z,15.65
2022-10-18T03:19:22.028Z,15.64
2022-10-18T03:21:51.990Z,15.63
2022-10-18T03:24:20.638Z,15.64
2022-10-18T03:26:49.347Z,15.62
2022-10-18T03:29:17.833Z,15.64
2022-10-18T03:31:46.648Z,15.66
2022-10-18T03:34:15.931Z,15.65
2022-10-18T03:36:44.974Z,15.68
2022-10-18T03:39:14.892Z,15.67
2022-10-18T03:41:43.644Z,15.60
2022-10-18T03:44:11.954Z,15.60
2022-10-18T03:46:40.941Z,15.60
2022-10-18T03:49:09.452Z,15.63
2022-10-18T03:51:38.326Z,15.62
2022-10-18T03:54:06.667Z,15.63
2022-10-18T03:56:36.803Z,15.68
2022-10-18T03:59:05.093Z,15.69
2022-10-18T04:01:33.371Z,15.70
2022-10-18T04:04:02.062Z,15.72
2022-10-18T04:06:30.458Z,15.76
2022-10-18T04:08:58.814Z,15.77
2022-10-18T04:11:27.240Z,15.77
2022-10-18T04:13:57.037Z,15.81
2022-10-18T04:16:25.660Z,15.84
2022-10-18T04:18:54.218Z,15.86
2022-10-18T04:21:22.449Z,15.92
2022-10-18T04:23:51.536Z,15.95
2022-10-18T04:26:19.793Z,15.98
2022-10-18T04:28:48.032Z,16.03
2022-10-18T04:31:18.250Z,16.09
2022-10-18T04:33:47.052Z,16.13
2022-10-18T04:36:15.210Z,16.16
2022-10-18T04:38:43.503Z,16.20
2022-10-18T04:41:11.320Z,16.26
2022-10-18T04:43:39.283Z,16.24
2022-10-18T04:46:07.472Z,16.35
2022-10-18T04:48:37.016Z,16.29
2022-10-18T04:51:04.913Z,16.26
2022-10-18T04:53:32.669Z,16.26
2022-10-18T04:56:00.508Z,16.28
2022-10-18T04:58:28.312Z,16.28
2022-10-18T05:00:56.662Z,16.29
2022-10-18T05:03:24.490Z,16.29
2022-10-18T05:06:01.727Z,16.30
2022-10-18T05:08:31.745Z,16.31
2022-10-18T05:11:00.471Z,16.35
2022-10-18T05:13:28.336Z,16.37
2022-10-18T05:15:56.289Z,16.39
2022-10-18T05:18:24.181Z,16.47
2022-10-18T05:20:53.411Z,16.54
2022-10-18T05:23:21.229Z,16.50
2022-10-18T05:25:49.043Z,16.50
2022-10-18T05:31:06.596Z,16.54
2022-10-18T05:33:35.058Z,16.43
2022-10-18T05:36:04.379Z,16.40
2022-10-18T05:38:32.340Z,16.41
2022-10-18T05:41:00.560Z,16.38
2022-10-18T05:43:30.008Z,16.36
2022-10-18T05:45:58.233Z,16.34
2022-10-18T05:48:26.656Z,16.33
2022-10-18T05:50:54.454Z,16.32
2022-10-18T05:53:38.846Z,16.29
2022-10-18T05:56:07.999Z,16.33
2022-10-18T05:58:36.326Z,16.25
2022-10-18T06:01:06.409Z,16.23
2022-10-18T06:03:34.710Z,16.21
2022-10-18T06:06:03.262Z,16.23
2022-10-18T06:08:32.572Z,16.21
2022-10-18T06:11:00.846Z,16.19
2022-10-18T06:13:31.143Z,16.17
2022-10-18T06:16:01.645Z,16.12
2022-10-18T06:18:29.937Z,16.09
2022-10-18T06:20:59.336Z,16.06
2022-10-18T06:23:28.327Z,16.06
2022-10-18T06:26:01.260Z,16.05
2022-10-18T06:28:29.910Z,16.05
2022-10-18T06:30:58.731Z,16.06
2022-10-18T06:33:26.920Z,16.10
2022-10-18T06:35:59.438Z,16.13
2022-10-18T06:38:28.017Z,16.17
2022-10-18T06:40:56.759Z,16.22
2022-10-18T06:43:26.417Z,16.31
2022-10-18T06:45:55.535Z,16.41
2022-10-18T06:48:25.673Z,16.53
2022-10-18T06:50:57.055Z,16.65
2022-10-18T06:53:25.688Z,16.77
2022-10-18T06:55:54.056Z,16.88
2022-10-18T06:58:22.126Z,16.99
2022-10-18T07:00:51.341Z,17.14
2022-10-18T07:03:19.153Z,17.22
2022-10-18T07:05:47.071Z,17.27
2022-10-18T07:08:15.309Z,17.31
2022-10-18T07:10:43.463Z,17.31
2022-10-18T07:13:31.396Z,17.38
2022-10-18T07:16:11.644Z,17.41
2022-10-18T07:18:43.840Z,17.47
2022-10-18T07:21:14.102Z,17.52
2022-10-18T07:23:43.987Z,17.61
2022-10-18T07:26:14.845Z,17.65
2022-10-18T07:28:44.154Z,17.70
2022-10-18T07:31:14.922Z,17.78
2022-10-18T07:33:44.398Z,17.82
2022-10-18T07:36:14.682Z,17.83
2022-10-18T07:38:43.294Z,17.90
2022-10-18T07:41:14.025Z,17.92
2022-10-18T07:43:47.447Z,17.95
2022-10-18T07:46:18.147Z,17.97
2022-10-18T07:48:46.535Z,17.98
2022-10-18T07:51:16.281Z,18.04
2022-10-18T07:53:44.910Z,18.09
2022-10-18T07:56:17.126Z,18.14
2022-10-18T07:58:46.940Z,18.27
2022-10-18T08:01:17.877Z,18.25
2022-10-18T08:03:46.259Z,18.30
2022-10-18T08:06:18.370Z,18.34
2022-10-18T08:08:47.793Z,18.41
2022-10-18T08:11:18.320Z,18.46
2022-10-18T08:13:47.084Z,18.54
2022-10-18T08:16:19.775Z,18.61
2022-10-18T08:18:48.389Z,18.72
2022-10-18T08:21:17.783Z,18.80
2022-10-18T08:23:46.677Z,18.92
2022-10-18T08:26:17.371Z,19.04
2022-10-18T08:28:53.987Z,19.10
2022-10-18T08:31:28.528Z,19.22
2022-10-18T08:34:01.093Z,19.27
2022-10-18T08:36:30.052Z,19.34
2022-10-18T08:38:58.941Z,19.53
2022-10-18T08:41:47.707Z,19.76
2022-10-18T08:44:23.165Z,19.98
2022-10-18T08:46:56.745Z,20.00
2022-10-18T08:49:31.472Z,20.00
2022-10-18T08:52:00.230Z,20.02
2022-10-18T08:54:36.428Z,20.10
2022-10-18T08:57:14.296Z,20.09
2022-10-18T08:59:44.172Z,20.13
2022-10-18T09:02:35.338Z,20.02
2022-10-18T09:05:18.700Z,20.08
2022-10-18T09:08:20.259Z,20.00
2022-10-18T09:11:00.631Z,20.10
2022-10-18T09:13:49.982Z,20.23
2022-10-18T09:16:25.786Z,20.03
2022-10-18T09:19:05.878Z,19.94
2022-10-18T09:21:48.427Z,19.85
2022-10-18T09:24:30.268Z,19.85
2022-10-18T09:27:06.068Z,19.95
2022-10-18T09:29:49.865Z,19.96
2022-10-18T09:32:31.393Z,20.05
2022-10-18T09:35:07.287Z,19.98
2022-10-18T09:37:37.016Z,19.93
2022-10-18T09:40:18.083Z,19.93
2022-10-18T09:42:55.635Z,20.00
2022-10-18T09:45:28.413Z,20.15
2022-10-18T09:48:03.892Z,20.30
2022-10-18T09:50:38.384Z,20.44
2022-10-18T09:53:15.070Z,20.44
2022-10-18T09:55:56.391Z,20.28
2022-10-18T09:58:28.318Z,20.19
2022-10-18T10:00:57.508Z,20.15
2022-10-18T10:03:26.925Z,20.08
2022-10-18T10:06:17.590Z,20.10
2022-10-18T10:08:49.492Z,20.37
2022-10-18T10:11:36.360Z,20.40
2022-10-18T10:14:14.267Z,20.43
2022-10-18T10:16:48.985Z,20.64
2022-10-18T10:19:19.766Z,20.80
2022-10-18T10:21:51.434Z,20.94
2022-10-18T10:24:27.441Z,21.06
2022-10-18T10:27:04.640Z,21.03
2022-10-18T10:29:51.551Z,20.97
2022-10-18T10:32:21.756Z,20.91
2022-10-18T10:34:50.053Z,20.90
2022-10-18T10:37:39.029Z,20.95
2022-10-18T10:40:28.406Z,20.93
2022-10-18T10:43:33.108Z,20.97
2022-10-18T10:46:09.977Z,20.94
2022-10-18T10:48:47.117Z,21.02
2022-10-18T10:51:17.389Z,21.14
2022-10-18T10:53:52.326Z,21.26
2022-10-18T10:56:25.655Z,21.36
2022-10-18T10:58:54.445Z,21.39
2022-10-18T11:01:28.679Z,21.52
2022-10-18T11:03:58.851Z,21.58
2022-10-18T11:06:40.499Z,21.67
2022-10-18T11:09:27.877Z,21.79
2022-10-18T11:12:27.896Z,21.60
2022-10-18T11:15:05.652Z,21.53
2022-10-18T11:17:41.355Z,21.38
2022-10-18T11:20:20.767Z,21.22
2022-10-18T11:22:59.927Z,21.06
2022-10-18T11:25:43.986Z,21.01
2022-10-18T11:28:21.549Z,21.17
2022-10-18T11:31:01.321Z,21.38
2022-10-18T11:34:07.197Z,21.51
2022-10-18T11:36:36.568Z,21.61
2022-10-18T11:39:10.370Z,21.59
2022-10-18T11:41:51.182Z,21.48
2022-10-18T11:44:30.398Z,21.39
2022-10-18T11:47:06.932Z,21.29
2022-10-18T11:49:52.774Z,21.35
2022-10-18T11:52:29.413Z,21.28
2022-10-18T11:55:17.423Z,21.21
2022-10-18T11:57:53.094Z,21.19
2022-10-18T12:00:31.296Z,21.18
2022-10-18T12:03:13.427Z,21.30
2022-10-18T12:05:44.557Z,21.54
2022-10-18T12:08:16.198Z,21.81
2022-10-18T12:11:04.175Z,21.89
2022-10-18T12:13:41.304Z,22.08
2022-10-18T12:16:10.851Z,22.22
2022-10-18T12:18:50.678Z,22.37
2022-10-18T12:21:25.280Z,22.47
2022-10-18T12:23:56.957Z,22.34
2022-10-18T12:26:26.327Z,22.27
2022-10-18T12:29:07.976Z,22.22
2022-10-18T12:31:41.465Z,22.10
2022-10-18T12:34:26.396Z,22.15
2022-10-18T12:37:11.967Z,22.14
2022-10-18T12:40:08.662Z,22.22
2022-10-18T12:42:41.443Z,22.32
2022-10-18T12:45:24.186Z,22.53
2022-10-18T12:47:52.472Z,22.66
2022-10-18T12:50:32.647Z,22.52
2022-10-18T12:53:17.067Z,22.50
2022-10-18T12:55:47.001Z,22.24
2022-10-18T12:58:36.749Z,22.19
2022-10-18T13:01:13.470Z,22.10
2022-10-18T13:04:02.719Z,22.08
2022-10-18T13:07:03.844Z,22.11
2022-10-18T13:09:35.460Z,22.20
2022-10-18T13:12:44.965Z,22.23
2022-10-18T13:15:36.374Z,22.29
2022-10-18T13:18:20.014Z,22.27
2022-10-18T13:20:57.721Z,22.19
2022-10-18T13:23:39.217Z,22.11
2022-10-18T13:26:22.716Z,21.98
2022-10-18T13:28:57.694Z,21.85
2022-10-18T13:31:31.469Z,21.91
2022-10-18T13:34:32.965Z,22.00
2022-10-18T13:37:02.767Z,21.96
2022-10-18T13:39:31.733Z,21.92
2022-10-18T13:42:32.590Z,21.82
2022-10-18T13:45:38.110Z,21.86
2022-10-18T13:48:43.698Z,22.00
2022-10-18T13:51:31.568Z,21.79
2022-10-18T13:54:05.676Z,21.67
2022-10-18T13:56:52.646Z,21.65
2022-10-18T13:59:47.006Z,21.57
2022-10-18T14:02:59.721Z,21.48
2022-10-18T14:05:50.202Z,21.39
2022-10-18T14:08:23.364Z,21.31
2022-10-18T14:11:03.016Z,21.19
2022-10-18T14:13:39.933Z,21.15
2022-10-18T14:16:22.191Z,21.18
2022-10-18T14:18:56.333Z,21.17
2022-10-18T14:21:31.665Z,21.17
2022-10-18T14:24:00.975Z,21.12
2022-10-18T14:26:29.621Z,21.03
2022-10-18T14:29:06.206Z,20.96
2022-10-18T14:31:35.746Z,20.96
2022-10-18T14:34:04.204Z,20.94
2022-10-18T14:36:38.165Z,20.93
2022-10-18T14:39:18.153Z,20.87
2022-10-18T14:41:52.516Z,20.79
2022-10-18T14:44:21.860Z,20.89
2022-10-18T14:46:54.191Z,20.78
2022-10-18T14:49:22.969Z,20.77
2022-10-18T14:51:54.169Z,20.80
2022-10-18T14:54:30.756Z,20.74
2022-10-18T14:57:00.740Z,20.73
2022-10-18T14:59:31.347Z,20.64
2022-10-18T15:02:02.839Z,20.70
2022-10-18T15:04:33.773Z,20.60
2022-10-18T15:07:03.591Z,20.54
2022-10-18T15:09:35.535Z,20.50
2022-10-18T15:12:08.714Z,20.46
2022-10-18T15:14:38.228Z,20.40
2022-10-18T15:17:14.005Z,20.26
2022-10-18T15:19:57.129Z,20.24
2022-10-18T15:22:31.727Z,20.22
2022-10-18T15:25:27.992Z,20.15
2022-10-18T15:28:00.505Z,20.07
2022-10-18T15:30:30.866Z,19.99
2022-10-18T15:33:00.989Z,19.95
2022-10-18T15:35:31.562Z,19.98
2022-10-18T15:38:02.518Z,19.90
2022-10-18T15:40:40.055Z,19.86
2022-10-18T15:43:36.065Z,19.83
2022-10-18T15:46:06.613Z,19.84
2022-10-18T15:48:38.382Z,19.79
2022-10-18T15:51:07.657Z,19.70
2022-10-18T15:53:42.447Z,19.71
2022-10-18T15:56:27.057Z,19.65
2022-10-18T15:58:57.287Z,19.63
2022-10-18T16:01:36.390Z,19.54
2022-10-18T16:04:10.590Z,19.49
2022-10-18T16:06:38.773Z,19.44
2022-10-18T16:09:06.757Z,19.42
2022-10-18T16:11:35.961Z,19.41
2022-10-18T16:14:04.165Z,19.34
2022-10-18T16:16:32.121Z,19.37
2022-10-18T16:19:00.224Z,19.35
2022-10-18T16:21:30.525Z,19.31
2022-10-18T16:23:58.995Z,19.28
2022-10-18T16:26:28.280Z,19.23
2022-10-18T16:28:58.230Z,19.20
2022-10-18T16:31:28.845Z,19.19
2022-10-18T16:33:57.719Z,19.12
2022-10-18T16:36:29.040Z,19.12
2022-10-18T16:38:58.188Z,19.09
2022-10-18T16:41:26.043Z,19.09
2022-10-18T16:43:54.542Z,19.01
2022-10-18T16:46:27.337Z,19.00
2022-10-18T16:48:56.047Z,18.97
2022-10-18T16:51:24.539Z,18.98
2022-10-18T16:53:53.399Z,18.96
2022-10-18T16:56:23.619Z,18.95
2022-10-18T16:58:51.832Z,18.91
2022-10-18T17:01:24.076Z,18.89
2022-10-18T17:03:54.056Z,18.90
2022-10-18T17:06:24.443Z,18.89
2022-10-18T17:08:54.149Z,18.86
2022-10-18T17:11:23.975Z,18.86
2022-10-18T17:13:51.984Z,18.86
2022-10-18T17:16:26.664Z,18.84
2022-10-18T17:18:54.738Z,18.78
2022-10-18T17:21:22.993Z,18.82
2022-10-18T17:23:50.882Z,18.76
2022-10-18T17:26:29.416Z,18.73
2022-10-18T17:29:00.299Z,18.70
2022-10-18T17:31:30.282Z,18.68
2022-10-18T17:34:01.478Z,18.76
2022-10-18T17:36:30.159Z,18.67
2022-10-18T17:38:58.661Z,18.69
2022-10-18T17:41:26.851Z,18.61
2022-10-18T17:43:54.838Z,18.58
2022-10-18T17:46:23.850Z,18.54
2022-10-18T17:48:54.222Z,18.54
2022-10-18T17:51:22.577Z,18.48
2022-10-18T17:53:50.697Z,18.46
2022-10-18T17:56:18.477Z,18.45
2022-10-18T17:58:47.030Z,18.45
2022-10-18T18:01:16.813Z,18.44
2022-10-18T18:03:44.956Z,18.41
2022-10-18T18:06:17.104Z,18.41
2022-10-18T18:08:45.074Z,18.38
2022-10-18T18:11:13.729Z,18.38
2022-10-18T18:13:41.739Z,18.37
2022-10-18T18:16:14.433Z,18.36
2022-10-18T18:18:42.916Z,18.35
2022-10-18T18:21:11.203Z,18.34
2022-10-18T18:23:40.931Z,18.32
2022-10-18T18:26:14.780Z,18.33
2022-10-18T18:28:43.023Z,18.35
2022-10-18T18:31:17.566Z,18.35
2022-10-18T18:33:45.895Z,18.35
2022-10-18T18:36:14.616Z,18.37
2022-10-18T18:38:44.427Z,18.38
2022-10-18T18:41:18.471Z,18.36
2022-10-18T18:43:50.572Z,18.37
2022-10-18T18:46:18.741Z,18.37
2022-10-18T18:48:46.815Z,18.34
2022-10-18T18:51:18.122Z,18.29
2022-10-18T18:53:48.762Z,18.29
2022-10-18T18:56:18.681Z,18.28
2022-10-18T18:58:47.791Z,18.28
2022-10-18T19:01:18.614Z,18.27
2022-10-18T19:03:53.071Z,18.26
2022-10-18T19:06:22.905Z,18.25
2022-10-18T19:09:00.321Z,18.23
2022-10-18T19:11:31.281Z,18.21
2022-10-18T19:13:59.453Z,18.20
2022-10-18T19:16:29.222Z,18.20
2022-10-18T19:19:00.282Z,18.18
2022-10-18T19:21:30.160Z,18.17
2022-10-18T19:23:59.801Z,18.12
2022-10-18T19:26:34.034Z,18.08
2022-10-18T19:29:05.206Z,18.04
2022-10-18T19:31:35.253Z,17.96
2022-10-18T19:34:04.362Z,17.93
2022-10-18T19:36:32.789Z,17.90
2022-10-18T19:39:03.769Z,17.88
2022-10-18T19:41:33.965Z,17.84
2022-10-18T19:44:02.357Z,17.81
2022-10-18T19:46:31.558Z,17.79
2022-10-18T19:48:59.360Z,17.74
2022-10-18T19:51:28.515Z,17.68
2022-10-18T19:54:00.313Z,17.64
2022-10-18T19:56:30.137Z,17.59
2022-10-18T19:58:58.735Z,17.55
2022-10-18T20:01:27.512Z,17.51
2022-10-18T20:03:55.897Z,17.50
2022-10-18T20:06:24.424Z,17.49
2022-10-18T20:08:53.601Z,17.44
2022-10-18T20:11:22.769Z,17.40
2022-10-18T20:13:52.387Z,17.41
2022-10-18T20:16:28.126Z,17.40
2022-10-18T20:18:58.380Z,17.38
2022-10-18T20:21:27.363Z,17.31
2022-10-18T20:23:55.917Z,17.24
2022-10-18T20:26:25.502Z,17.20
2022-10-18T20:28:57.922Z,17.17
2022-10-18T20:31:28.464Z,17.16
2022-10-18T20:33:57.713Z,17.16
2022-10-18T20:36:26.784Z,17.15
2022-10-18T20:38:58.140Z,17.09
2022-10-18T20:41:27.759Z,17.04
2022-10-18T20:43:58.523Z,16.98
2022-10-18T20:46:26.883Z,16.88
2022-10-18T20:48:55.111Z,16.80
2022-10-18T20:51:23.645Z,16.75
2022-10-18T20:53:51.988Z,16.74
2022-10-18T20:56:21.461Z,16.74
2022-10-18T20:58:51.746Z,16.74
2022-10-18T21:01:22.630Z,16.70
2022-10-18T21:03:52.948Z,16.63
2022-10-18T21:06:22.745Z,16.58
2022-10-18T21:08:54.222Z,16.53
2022-10-18T21:11:22.309Z,16.51
2022-10-18T21:13:53.622Z,16.44
2022-10-18T21:16:23.173Z,16.39
2022-10-18T21:18:51.271Z,16.34
2022-10-18T21:21:21.290Z,16.29
2022-10-18T21:23:49.482Z,16.25
2022-10-18T21:26:19.063Z,16.22
2022-10-18T21:28:47.402Z,16.16
2022-10-18T21:31:17.922Z,16.16
2022-10-18T21:33:48.768Z,16.14
2022-10-18T21:36:16.586Z,16.10
2022-10-18T21:38:46.668Z,16.06
2022-10-18T21:41:16.820Z,16.08
2022-10-18T21:43:47.846Z,16.05
2022-10-18T21:46:16.732Z,16.03
2022-10-18T21:48:45.577Z,16.03
2022-10-18T21:51:17.588Z,16.07
2022-10-18T21:53:48.397Z,16.06
2022-10-18T21:56:18.174Z,16.05
2022-10-18T21:58:46.929Z,16.10
2022-10-18T22:01:17.766Z,16.11
2022-10-18T22:03:48.781Z,16.12
2022-10-18T22:06:19.045Z,16.10
2022-10-18T22:08:50.280Z,16.11
2022-10-18T22:11:18.657Z,16.11
2022-10-18T22:13:47.232Z,16.07
2022-10-18T22:16:16.395Z,16.05
2022-10-18T22:18:45.093Z,16.03
2022-10-18T22:21:14.989Z,16.02
2022-10-18T22:23:46.228Z,16.00
2022-10-18T22:26:16.607Z,15.98
2022-10-18T22:28:46.335Z,15.95
2022-10-18T22:31:18.642Z,15.88
2022-10-18T22:33:46.924Z,15.83
2022-10-18T22:36:15.323Z,15.79
2022-10-18T22:38:44.844Z,15.77
2022-10-18T22:41:13.177Z,15.77
2022-10-18T22:43:41.672Z,15.73
2022-10-18T22:46:11.239Z,15.72
2022-10-18T22:48:39.206Z,15.70
2022-10-18T22:51:07.857Z,15.70
2022-10-18T22:53:36.688Z,15.71
2022-10-18T22:56:07.153Z,15.68
2022-10-18T22:58:35.271Z,15.69
2022-10-18T23:01:05.544Z,15.68
2022-10-18T23:03:34.057Z,15.66
2022-10-18T23:06:02.588Z,15.65
2022-10-18T23:08:32.516Z,15.65
2022-10-18T23:11:01.523Z,15.63
2022-10-18T23:13:30.777Z,15.62
2022-10-18T23:16:04.649Z,15.63
2022-10-18T23:18:33.950Z,15.59
2022-10-18T23:21:03.507Z,15.52
2022-10-18T23:23:34.897Z,15.49
2022-10-18T23:26:04.436Z,15.45
2022-10-18T23:28:36.618Z,15.43
2022-10-18T23:31:07.900Z,15.38
2022-10-18T23:33:35.936Z,15.33
2022-10-18T23:36:04.314Z,15.31
2022-10-18T23:38:32.209Z,15.23
2022-10-18T23:41:00.096Z,15.17
2022-10-18T23:43:28.324Z,15.19
2022-10-18T23:45:57.985Z,15.19
2022-10-18T23:48:25.989Z,15.20
2022-10-18T23:50:54.145Z,15.19
2022-10-18T23:53:22.780Z,15.17
2022-10-18T23:55:54.679Z,15.10
2022-10-18T23:58:22.587Z,15.06
